Time;durP1;ratioP1;P1;durP2;ratioP2;P2;SDS_P1;SDS_P2;PMS_P1;PMS_P2;Temp;Humidity;BMP_temperature;BMP_pressure;BME280_temperature;BME280_humidity;BME280_pressure;Samples;Min_cycle;Max_cycle;Signal;HPM_P1;HPM_P2
2021/04/17 00:00:34;;;;;;;17.00;8.80;;;;;;;;;;8259346;28;20075;-75
2021/04/17 00:04:39;;;;;;;19.65;9.40;;;;;;;;;;8259656;28;20415;-76
2021/04/17 00:08:43;;;;;;;20.30;10.57;;;;;;;;;;8259358;28;20376;-76
2021/04/17 00:12:46;;;;;;;14.43;8.50;;;;;;;;;;8241574;28;20041;-76
2021/04/17 00:16:51;;;;;;;23.23;9.45;;;;;;;;;;8259183;28;20337;-76
2021/04/17 00:20:55;;;;;;;28.90;11.18;;;;;;;;;;8258537;28;20444;-76
2021/04/17 00:25:00;;;;;;;22.73;9.15;;;;;;;;;;8242149;28;20463;-75
2021/04/17 00:29:08;;;;;;;17.83;9.13;;;;;;;;;;8258839;28;20464;-76
2021/04/17 00:33:15;;;;;;;15.50;7.95;;;;;;;;;;8261845;28;20337;-76
2021/04/17 00:37:20;;;;;;;12.32;7.07;;;;;;;;;;8258106;28;20053;-76
2021/04/17 00:41:25;;;;;;;16.10;8.32;;;;;;;;;;8259547;28;20053;-76
2021/04/17 00:45:29;;;;;;;15.00;7.38;;;;;;;;;;8223978;28;20063;-75
2021/04/17 00:49:34;;;;;;;15.02;7.82;;;;;;;;;;8258159;28;20379;-76
2021/04/17 00:53:40;;;;;;;12.88;6.78;;;;;;;;;;8241245;28;20349;-76
2021/04/17 00:57:45;;;;;;;14.23;8.00;;;;;;;;;;8257263;28;20079;-76
2021/04/17 01:01:48;;;;;;;15.52;7.80;;;;;;;;;;8261374;28;20053;-75
2021/04/17 01:06:02;;;;;;;12.45;7.50;;;;;;;;;;8273449;28;20447;-76
2021/04/17 01:10:30;;;;;;;9.65;6.03;;;;;;;;;;8274227;28;20376;-75
2021/04/17 01:14:36;;;;;;;14.95;8.73;;;;;;;;;;8273697;28;20497;-76
2021/04/17 01:18:40;;;;;;;14.27;6.30;;;;;;;;;;8291196;28;20483;-75
2021/04/17 01:23:15;;;;;;;12.07;5.78;;;;;;;;;;8272090;28;20045;-75
2021/04/17 01:27:19;;;;;;;14.65;6.18;;;;;;;;;;8263854;28;20120;-75
2021/04/17 01:31:29;;;;;;;10.75;6.72;;;;;;;;;;8272819;28;20383;-75
2021/04/17 01:35:34;;;;;;;11.10;6.30;;;;;;;;;;8273539;28;20463;-76
2021/04/17 01:39:41;;;;;;;13.30;6.63;;;;;;;;;;8272619;28;20109;-75
2021/04/17 01:43:52;;;;;;;11.65;6.93;;;;;;;;;;8272680;28;20479;-76
2021/04/17 01:48:00;;;;;;;13.05;8.00;;;;;;;;;;8272023;28;20440;-75
2021/04/17 01:52:11;;;;;;;13.52;7.35;;;;;;;;;;8272578;28;20486;-75
2021/04/17 01:56:20;;;;;;;11.95;7.03;;;;;;;;;;8272620;28;20360;-76
2021/04/17 02:00:24;;;;;;;14.10;7.25;;;;;;;;;;8296439;28;20371;-75
2021/04/17 02:04:29;;;;;;;18.20;10.35;;;;;;;;;;8279208;28;20505;-76
2021/04/17 02:08:35;;;;;;;21.02;9.63;;;;;;;;;;8295410;28;20045;-76
2021/04/17 02:12:40;;;;;;;12.50;7.57;;;;;;;;;;8278315;28;20443;-76
2021/04/17 02:16:54;;;;;;;13.07;7.85;;;;;;;;;;8297338;28;20352;-76
2021/04/17 02:21:08;;;;;;;8.45;6.00;;;;;;;;;;8279769;28;20466;-76
2021/04/17 02:25:13;;;;;;;11.65;7.95;;;;;;;;;;8296380;28;20448;-75
2021/04/17 02:29:18;;;;;;;15.85;7.85;;;;;;;;;;8295009;28;20356;-75
2021/04/17 02:33:23;;;;;;;16.42;9.07;;;;;;;;;;8294321;28;20052;-75
2021/04/17 02:37:28;;;;;;;18.10;10.52;;;;;;;;;;8295257;28;20497;-76
2021/04/17 02:41:33;;;;;;;16.52;10.43;;;;;;;;;;8294675;28;20060;-75
2021/04/17 02:45:37;;;;;;;13.48;9.20;;;;;;;;;;8294573;28;20471;-75
2021/04/17 02:49:41;;;;;;;16.15;8.57;;;;;;;;;;8294675;28;20414;-76
2021/04/17 02:53:45;;;;;;;15.00;8.65;;;;;;;;;;8294789;28;20517;-75
2021/04/17 02:57:50;;;;;;;13.82;8.43;;;;;;;;;;8294930;28;20375;-76
2021/04/17 03:01:53;;;;;;;15.55;8.45;;;;;;;;;;8294595;28;20364;-77
2021/04/17 03:05:58;;;;;;;12.30;8.50;;;;;;;;;;8294404;28;20456;-76
2021/04/17 03:10:05;;;;;;;13.40;8.43;;;;;;;;;;8293941;28;20572;-76
2021/04/17 03:14:09;;;;;;;19.13;10.10;;;;;;;;;;8295200;28;20041;-76
2021/04/17 03:18:14;;;;;;;14.13;8.88;;;;;;;;;;8293667;28;20361;-76
2021/04/17 03:22:18;;;;;;;12.93;7.85;;;;;;;;;;8292639;28;20056;-76
2021/04/17 03:26:23;;;;;;;14.93;9.27;;;;;;;;;;8275198;28;20367;-76
2021/04/17 03:30:28;;;;;;;16.73;9.98;;;;;;;;;;8292421;28;20494;-77
2021/04/17 03:34:33;;;;;;;19.13;9.52;;;;;;;;;;8292914;28;20483;-76
2021/04/17 03:38:37;;;;;;;20.17;12.10;;;;;;;;;;8293314;28;20072;-76
2021/04/17 03:42:42;;;;;;;20.88;12.43;;;;;;;;;;8275542;28;20356;-77
2021/04/17 03:46:46;;;;;;;18.88;10.95;;;;;;;;;;8292059;28;20428;-77
2021/04/17 03:50:51;;;;;;;16.30;10.15;;;;;;;;;;8274946;28;20364;-76
2021/04/17 03:54:55;;;;;;;13.77;9.23;;;;;;;;;;8274584;28;20471;-76
2021/04/17 03:59:00;;;;;;;15.10;10.02;;;;;;;;;;8291297;28;20079;-76
2021/04/17 04:03:05;;;;;;;16.75;10.27;;;;;;;;;;8275200;28;20329;-76
2021/04/17 04:07:09;;;;;;;18.83;11.43;;;;;;;;;;8293382;28;20394;-76
2021/04/17 04:11:13;;;;;;;19.40;12.20;;;;;;;;;;8291673;28;20365;-76
2021/04/17 04:15:18;;;;;;;20.08;12.52;;;;;;;;;;8290731;28;20394;-77
2021/04/17 04:19:23;;;;;;;22.90;12.52;;;;;;;;;;8292643;28;20537;-76
2021/04/17 04:23:27;;;;;;;20.58;12.38;;;;;;;;;;8292308;28;20074;-76
2021/04/17 04:27:31;;;;;;;18.52;11.05;;;;;;;;;;8291550;28;20380;-77
2021/04/17 04:31:35;;;;;;;22.40;13.02;;;;;;;;;;8290641;28;20464;-76
2021/04/17 04:35:40;;;;;;;19.80;12.20;;;;;;;;;;8293655;28;20343;-76
2021/04/17 04:39:44;;;;;;;21.60;13.60;;;;;;;;;;8273527;28;20452;-76
2021/04/17 04:43:50;;;;;;;29.20;17.35;;;;;;;;;;8274425;28;20455;-76
2021/04/17 04:47:53;;;;;;;28.30;17.10;;;;;;;;;;8291020;28;20490;-76
2021/04/17 04:51:58;;;;;;;34.10;15.07;;;;;;;;;;8291209;28;20463;-76
2021/04/17 04:56:03;;;;;;;25.73;13.13;;;;;;;;;;8291181;28;20406;-76
2021/04/17 05:00:08;;;;;;;18.77;12.15;;;;;;;;;;8290275;28;20497;-76
2021/04/17 05:04:13;;;;;;;19.30;11.95;;;;;;;;;;8290122;28;20340;-76
2021/04/17 05:08:18;;;;;;;18.33;11.18;;;;;;;;;;8290410;28;20454;-76
2021/04/17 05:12:23;;;;;;;19.38;12.63;;;;;;;;;;8290688;28;20078;-76
2021/04/17 05:16:27;;;;;;;17.27;10.68;;;;;;;;;;8291407;28;20394;-75
2021/04/17 05:20:33;;;;;;;17.75;10.50;;;;;;;;;;8289263;28;20129;-76
2021/04/17 05:24:38;;;;;;;20.45;12.85;;;;;;;;;;8290071;28;20348;-76
2021/04/17 05:28:42;;;;;;;19.60;11.95;;;;;;;;;;8272698;28;20494;-76
2021/04/17 05:32:47;;;;;;;18.73;10.90;;;;;;;;;;8274016;28;20075;-76
2021/04/17 05:36:51;;;;;;;14.50;8.65;;;;;;;;;;8278397;28;20371;-76
2021/04/17 05:40:56;;;;;;;15.40;9.40;;;;;;;;;;8297191;28;21260;-77
2021/04/17 05:45:00;;;;;;;13.02;7.60;;;;;;;;;;8296110;28;20394;-76
2021/04/17 05:49:04;;;;;;;12.98;8.15;;;;;;;;;;8296484;28;20053;-76
2021/04/17 05:53:08;;;;;;;16.17;9.15;;;;;;;;;;8296567;28;20078;-76
2021/04/17 05:57:13;;;;;;;17.92;9.25;;;;;;;;;;8298431;28;20447;-77
2021/04/17 06:01:17;;;;;;;13.73;8.38;;;;;;;;;;8291089;28;20079;-76
2021/04/17 06:05:22;;;;;;;19.65;11.02;;;;;;;;;;8296590;28;20375;-76
2021/04/17 06:09:26;;;;;;;11.50;7.07;;;;;;;;;;8296822;28;20119;-76
2021/04/17 06:13:31;;;;;;;29.40;12.27;;;;;;;;;;8295143;28;20474;-76
2021/04/17 06:17:35;;;;;;;11.45;6.70;;;;;;;;;;8294352;28;20497;-76
2021/04/17 06:21:40;;;;;;;12.85;7.22;;;;;;;;;;8296439;28;20459;-76
2021/04/17 06:25:45;;;;;;;6.38;4.15;;;;;;;;;;8295119;28;20364;-76
2021/04/17 06:29:49;;;;;;;13.05;7.85;;;;;;;;;;8294552;28;20398;-77
2021/04/17 06:33:53;;;;;;;7.95;5.28;;;;;;;;;;8295485;28;20462;-77
2021/04/17 06:37:58;;;;;;;8.63;4.90;;;;;;;;;;8294871;28;20395;-77
2021/04/17 06:42:08;;;;;;;11.05;5.10;;;;;;;;;;8293985;28;20464;-76
2021/04/17 06:46:13;;;;;;;6.22;4.05;;;;;;;;;;8291810;28;20082;-75
2021/04/17 06:50:19;;;;;;;7.00;4.00;;;;;;;;;;8294013;28;20463;-75
2021/04/17 06:54:26;;;;;;;8.32;4.80;;;;;;;;;;8294065;28;20068;-76
2021/04/17 06:58:30;;;;;;;6.68;3.08;;;;;;;;;;8292172;28;20064;-75
2021/04/17 07:02:36;;;;;;;6.88;3.63;;;;;;;;;;8293714;28;20070;-76
2021/04/17 07:06:40;;;;;;;9.88;4.28;;;;;;;;;;8293703;28;20484;-75
2021/04/17 07:10:44;;;;;;;7.38;4.20;;;;;;;;;;8294104;28;20452;-75
2021/04/17 07:14:52;;;;;;;8.05;4.63;;;;;;;;;;8275513;28;20345;-75
2021/04/17 07:18:57;;;;;;;5.10;3.63;;;;;;;;;;8276806;28;20455;-76
2021/04/17 07:23:01;;;;;;;6.93;4.43;;;;;;;;;;8258836;28;20344;-75
2021/04/17 07:27:07;;;;;;;5.57;3.67;;;;;;;;;;8275049;28;20505;-75
2021/04/17 07:31:15;;;;;;;6.07;3.58;;;;;;;;;;8275793;28;20070;-76
2021/04/17 07:35:22;;;;;;;4.88;3.92;;;;;;;;;;8292321;28;20366;-76
2021/04/17 07:39:36;;;;;;;16.25;8.77;;;;;;;;;;8292809;28;20557;-75
2021/04/17 07:43:58;;;;;;;13.52;8.18;;;;;;;;;;8275366;28;20364;-76
2021/04/17 07:48:29;;;;;;;11.15;5.63;;;;;;;;;;8274715;28;20448;-75
2021/04/17 07:52:35;;;;;;;9.52;5.45;;;;;;;;;;8292290;28;20390;-75
2021/04/17 07:56:40;;;;;;;8.90;4.47;;;;;;;;;;8276127;28;20387;-75
2021/04/17 08:00:45;;;;;;;6.25;3.75;;;;;;;;;;8292464;28;20431;-75
2021/04/17 08:04:50;;;;;;;8.57;4.80;;;;;;;;;;8292445;28;20359;-76
2021/04/17 08:08:58;;;;;;;8.40;5.15;;;;;;;;;;8258604;28;20353;-75
2021/04/17 08:13:07;;;;;;;7.68;4.43;;;;;;;;;;8274288;28;20360;-75
2021/04/17 08:17:12;;;;;;;;;;;;;;;;;;8292525;28;20368;-75
2021/04/17 08:21:21;;;;;;;9.18;4.65;;;;;;;;;;8273220;28;20374;-75
2021/04/17 08:25:26;;;;;;;7.38;4.55;;;;;;;;;;8290279;28;20434;-76
2021/04/17 08:29:53;;;;;;;7.10;4.40;;;;;;;;;;8290425;28;20405;-75
2021/04/17 08:34:14;;;;;;;8.80;4.95;;;;;;;;;;8258282;28;20348;-75
2021/04/17 08:38:19;;;;;;;31.42;11.57;;;;;;;;;;8292061;28;20359;-75
2021/04/17 08:42:44;;;;;;;10.10;6.60;;;;;;;;;;8289813;28;20471;-75
2021/04/17 08:46:50;;;;;;;16.05;7.95;;;;;;;;;;8290021;28;20348;-75
2021/04/17 08:51:29;;;;;;;23.45;13.15;;;;;;;;;;8291961;28;20070;-74
2021/04/17 08:55:36;;;;;;;11.02;6.18;;;;;;;;;;8290158;28;20459;-75
2021/04/17 08:59:43;;;;;;;15.48;8.13;;;;;;;;;;8290630;28;20383;-76
2021/04/17 09:03:48;;;;;;;14.35;9.25;;;;;;;;;;8256662;28;20387;-76
2021/04/17 09:08:12;;;;;;;9.52;6.72;;;;;;;;;;8287542;28;20044;-75
2021/04/17 09:12:28;;;;;;;7.47;5.63;;;;;;;;;;8271228;28;20488;-75
2021/04/17 09:16:40;;;;;;;8.18;5.82;;;;;;;;;;8291240;28;20067;-75
2021/04/17 09:20:45;;;;;;;16.00;6.82;;;;;;;;;;8290982;28;20371;-75
2021/04/17 09:24:50;;;;;;;21.25;10.35;;;;;;;;;;8290568;28;20402;-75
2021/04/17 09:28:56;;;;;;;28.60;14.55;;;;;;;;;;8271827;28;20391;-74
2021/04/17 09:33:15;;;;;;;22.20;13.20;;;;;;;;;;8289490;28;20414;-75
2021/04/17 09:37:18;;;;;;;32.08;14.68;;;;;;;;;;8287729;28;20395;-75
2021/04/17 09:41:23;;;;;;;29.60;12.70;;;;;;;;;;8271138;28;20370;-75
2021/04/17 09:45:35;;;;;;;16.42;9.20;;;;;;;;;;8289888;28;20486;-75
2021/04/17 09:49:46;;;;;;;12.85;8.00;;;;;;;;;;8272096;28;20497;-75
2021/04/17 09:53:52;;;;;;;15.90;8.10;;;;;;;;;;8271759;28;20451;-76
2021/04/17 09:57:58;;;;;;;18.60;10.05;;;;;;;;;;8272315;28;20071;-75
2021/04/17 10:02:03;;;;;;;20.60;11.27;;;;;;;;;;8272436;28;20079;-75
2021/04/17 10:06:26;;;;;;;33.13;15.90;;;;;;;;;;8292000;28;20450;-75
2021/04/17 10:10:38;;;;;;;26.00;13.70;;;;;;;;;;8256963;28;20455;-75
2021/04/17 10:14:42;;;;;;;28.60;14.30;;;;;;;;;;8287752;28;20056;-75
2021/04/17 10:18:47;;;;;;;24.40;14.15;;;;;;;;;;8273428;28;20459;-75
2021/04/17 10:23:03;;;;;;;21.27;12.88;;;;;;;;;;8277950;28;20407;-75
2021/04/17 10:27:12;;;;;;;31.90;18.42;;;;;;;;;;8295346;28;20475;-75
2021/04/17 10:31:19;;;;;;;21.00;10.82;;;;;;;;;;8296376;28;20468;-75
2021/04/17 10:35:24;;;;;;;31.60;14.85;;;;;;;;;;8294883;28;20478;-74
2021/04/17 10:39:28;;;;;;;27.40;13.57;;;;;;;;;;8276605;28;20052;-74
2021/04/17 10:43:33;;;;;;;11.90;7.72;;;;;;;;;;8260867;28;20060;-74
2021/04/17 10:47:38;;;;;;;43.75;21.63;;;;;;;;;;8260899;28;20468;-74
2021/04/17 10:51:43;;;;;;;15.43;9.50;;;;;;;;;;8276243;28;20075;-74
2021/04/17 10:55:57;;;;;;;18.65;10.88;;;;;;;;;;8293314;28;20443;-74
2021/04/17 11:00:05;;;;;;;30.50;15.57;;;;;;;;;;8294278;28;20426;-73
2021/04/17 11:04:08;;;;;;;20.40;11.18;;;;;;;;;;8277154;28;20401;-73
2021/04/17 11:08:22;;;;;;;20.50;11.05;;;;;;;;;;8295856;28;20048;-74
2021/04/17 11:12:31;;;;;;;40.45;19.38;;;;;;;;;;8277678;28;20052;-74
2021/04/17 11:16:46;;;;;;;;;;;;;;;;;;8293966;28;20115;-74
2021/04/17 11:20:57;;;;;;;28.00;16.33;;;;;;;;;;8292736;28;19920;-75
2021/04/17 11:25:02;;;;;;;19.67;11.38;;;;;;;;;;8293371;28;20079;-73
2021/04/17 11:29:05;;;;;;;18.23;12.43;;;;;;;;;;8293613;28;20470;-74
2021/04/17 11:33:10;;;;;;;16.10;9.73;;;;;;;;;;8274978;28;20455;-73
2021/04/17 11:37:15;;;;;;;32.28;16.45;;;;;;;;;;8284222;28;20466;-74
2021/04/17 11:41:20;;;;;;;42.35;17.75;;;;;;;;;;8293561;28;20372;-75
2021/04/17 11:45:25;;;;;;;34.33;17.33;;;;;;;;;;8292959;28;20414;-75
2021/04/17 11:49:31;;;;;;;29.88;14.57;;;;;;;;;;8275544;28;20426;-75
2021/04/17 11:53:37;;;;;;;38.63;17.02;;;;;;;;;;8293244;28;20470;-75
2021/04/17 11:57:42;;;;;;;37.15;17.33;;;;;;;;;;8275382;28;20456;-75
2021/04/17 12:01:47;;;;;;;40.65;18.35;;;;;;;;;;8324531;28;20355;-75
2021/04/17 12:05:54;;;;;;;33.50;19.48;;;;;;;;;;8308795;28;20485;-75
2021/04/17 12:09:58;;;;;;;29.65;15.05;;;;;;;;;;8308382;28;20486;-75
2021/04/17 12:14:03;;;;;;;42.88;22.65;;;;;;;;;;8326226;28;20459;-75
2021/04/17 12:18:11;;;;;;;21.30;12.50;;;;;;;;;;8324166;28;20370;-75
2021/04/17 12:22:15;;;;;;;36.58;17.88;;;;;;;;;;8324427;28;20347;-75
2021/04/17 12:26:19;;;;;;;23.55;14.63;;;;;;;;;;8307309;28;20450;-75
2021/04/17 12:30:25;;;;;;;21.10;12.60;;;;;;;;;;8305291;28;20378;-75
2021/04/17 12:34:43;;;;;;;52.65;30.67;;;;;;;;;;8307729;28;20409;-75
2021/04/17 12:38:47;;;;;;;22.10;12.52;;;;;;;;;;8323720;28;20074;-76
2021/04/17 12:42:52;;;;;;;31.38;16.50;;;;;;;;;;8322424;28;20465;-76
2021/04/17 12:46:56;;;;;;;25.48;12.50;;;;;;;;;;8306391;28;20052;-77
2021/04/17 12:51:01;;;;;;;20.17;9.80;;;;;;;;;;8325109;28;20379;-75
2021/04/17 12:55:06;;;;;;;29.65;14.77;;;;;;;;;;8323840;28;20358;-75
2021/04/17 12:59:11;;;;;;;29.02;15.10;;;;;;;;;;8296573;28;20345;-75
2021/04/17 13:03:14;;;;;;;30.42;17.75;;;;;;;;;;8290892;28;20479;-75
2021/04/17 13:07:19;;;;;;;24.10;16.45;;;;;;;;;;8273099;28;20371;-75
2021/04/17 13:11:29;;;;;;;21.63;11.40;;;;;;;;;;8291116;28;20345;-75
2021/04/17 13:15:33;;;;;;;39.67;17.60;;;;;;;;;;8273510;28;20361;-76
2021/04/17 13:19:38;;;;;;;49.88;26.75;;;;;;;;;;8291594;28;20348;-78
2021/04/17 13:23:45;;;;;;;26.02;12.70;;;;;;;;;;8289693;28;20447;-76
2021/04/17 13:27:50;;;;;;;18.15;10.38;;;;;;;;;;8272209;28;20364;-76
2021/04/17 13:31:54;;;;;;;26.00;13.90;;;;;;;;;;8290803;28;20075;-75
2021/04/17 13:35:59;;;;;;;24.52;11.60;;;;;;;;;;8290328;28;20044;-76
2021/04/17 13:40:05;;;;;;;24.45;11.45;;;;;;;;;;8291760;28;20070;-75
2021/04/17 13:44:11;;;;;;;19.40;10.90;;;;;;;;;;8290506;28;20404;-75
2021/04/17 13:48:16;;;;;;;33.22;17.13;;;;;;;;;;8288743;28;20044;-75
2021/04/17 13:52:20;;;;;;;35.90;16.40;;;;;;;;;;8272180;28;20501;-76
2021/04/17 13:56:28;;;;;;;25.05;14.55;;;;;;;;;;8295504;28;20071;-75
2021/04/17 14:00:32;;;;;;;21.23;12.30;;;;;;;;;;8295119;28;20391;-75
2021/04/17 14:04:37;;;;;;;30.30;16.13;;;;;;;;;;8294022;28;20464;-75
2021/04/17 14:08:42;;;;;;;19.45;11.77;;;;;;;;;;8295993;28;20360;-76
2021/04/17 14:12:48;;;;;;;26.63;14.93;;;;;;;;;;8295774;28;20083;-75
2021/04/17 14:16:53;;;;;;;31.17;16.23;;;;;;;;;;8277041;28;20624;-75
2021/04/17 14:20:59;;;;;;;24.83;12.38;;;;;;;;;;8295372;28;20469;-75
2021/04/17 14:25:05;;;;;;;29.20;16.05;;;;;;;;;;8277011;28;20075;-76
2021/04/17 14:29:10;;;;;;;44.53;17.92;;;;;;;;;;8294529;28;20414;-75
2021/04/17 14:33:21;;;;;;;21.48;11.50;;;;;;;;;;8276646;28;20371;-75
2021/04/17 14:37:26;;;;;;;23.00;12.00;;;;;;;;;;8295566;28;20387;-76
2021/04/17 14:41:32;;;;;;;38.20;19.40;;;;;;;;;;8278307;28;20474;-75
2021/04/17 14:45:38;;;;;;;36.88;18.33;;;;;;;;;;8296974;28;20052;-75
2021/04/17 14:49:44;;;;;;;30.05;15.00;;;;;;;;;;8277539;28;20360;-75
2021/04/17 14:53:49;;;;;;;56.53;24.45;;;;;;;;;;8295394;28;20053;-75
2021/04/17 14:57:54;;;;;;;32.30;16.52;;;;;;;;;;8294247;28;20430;-75
2021/04/17 15:01:59;;;;;;;20.52;11.75;;;;;;;;;;8293509;28;20490;-75
2021/04/17 15:06:04;;;;;;;33.95;16.85;;;;;;;;;;8292997;28;20056;-75
2021/04/17 15:10:10;;;;;;;36.83;18.02;;;;;;;;;;8293142;28;20483;-75
2021/04/17 15:14:15;;;;;;;49.03;21.65;;;;;;;;;;8295261;28;20463;-75
2021/04/17 15:18:21;;;;;;;50.13;23.60;;;;;;;;;;8293022;28;20355;-75
2021/04/17 15:22:26;;;;;;;23.90;13.52;;;;;;;;;;8294139;28;20359;-74
2021/04/17 15:26:33;;;;;;;23.25;13.52;;;;;;;;;;8276067;28;20052;-75
2021/04/17 15:30:37;;;;;;;21.63;12.30;;;;;;;;;;8292427;28;20444;-75
2021/04/17 15:34:44;;;;;;;18.65;9.88;;;;;;;;;;8260086;28;20460;-75
2021/04/17 15:38:49;;;;;;;15.52;9.48;;;;;;;;;;8274806;28;20375;-75
2021/04/17 15:42:57;;;;;;;18.35;10.30;;;;;;;;;;8275741;28;20078;-75
2021/04/17 15:47:01;;;;;;;37.67;17.33;;;;;;;;;;8274843;28;20466;-74
2021/04/17 15:51:08;;;;;;;54.42;24.75;;;;;;;;;;8294470;28;20355;-76
2021/04/17 15:55:13;;;;;;;51.42;23.88;;;;;;;;;;8293922;28;20467;-76
2021/04/17 16:04:12;;;;;;;48.35;21.38;;;;;;;;;;8273762;28;20376;-74
2021/04/17 16:17:14;;;;;;;50.72;23.85;;;;;;;;;;8291565;28;20067;-74
2021/04/17 16:21:19;;;;;;;27.85;13.48;;;;;;;;;;8292008;28;20052;-75
2021/04/17 16:25:25;;;;;;;30.27;14.90;;;;;;;;;;8291530;28;20074;-75
2021/04/17 16:29:30;;;;;;;75.28;31.40;;;;;;;;;;8257923;28;20379;-75
2021/04/17 16:33:35;;;;;;;73.05;34.60;;;;;;;;;;8293340;28;20348;-75
2021/04/17 16:37:40;;;;;;;29.58;15.40;;;;;;;;;;8292180;28;20463;-76
2021/04/17 16:41:44;;;;;;;24.33;12.48;;;;;;;;;;8291118;28;20056;-75
2021/04/17 16:45:50;;;;;;;27.42;12.50;;;;;;;;;;8290173;28;20052;-74
2021/04/17 16:49:53;;;;;;;30.63;14.27;;;;;;;;;;8272274;28;20044;-74
2021/04/17 16:53:57;;;;;;;44.28;18.52;;;;;;;;;;8290809;28;20455;-75
2021/04/17 16:58:02;;;;;;;66.45;29.45;;;;;;;;;;8291418;28;20402;-75
2021/04/17 17:02:07;;;;;;;69.40;32.80;;;;;;;;;;8325096;28;20368;-74
2021/04/17 17:06:11;;;;;;;32.75;15.60;;;;;;;;;;8323336;28;20064;-75
2021/04/17 17:10:17;;;;;;;26.05;14.77;;;;;;;;;;8324005;28;20469;-74
2021/04/17 17:14:22;;;;;;;34.55;15.63;;;;;;;;;;8324125;28;20164;-75
2021/04/17 17:18:27;;;;;;;39.95;15.77;;;;;;;;;;8290302;28;20391;-75
2021/04/17 17:22:46;;;;;;;29.60;15.00;;;;;;;;;;8307317;28;20370;-75
2021/04/17 17:27:01;;;;;;;36.80;17.02;;;;;;;;;;8307893;28;20352;-75
2021/04/17 17:31:07;;;;;;;66.53;26.00;;;;;;;;;;8329976;28;20078;-74
2021/04/17 17:35:13;;;;;;;46.78;17.42;;;;;;;;;;8310834;28;20477;-74
2021/04/17 17:39:18;;;;;;;184.02;48.05;;;;;;;;;;8311845;28;20471;-75
2021/04/17 17:43:23;;;;;;;113.13;37.40;;;;;;;;;;8296789;28;20053;-75
2021/04/17 17:47:27;;;;;;;83.78;33.10;;;;;;;;;;8310592;28;20390;-74
2021/04/17 17:51:32;;;;;;;75.43;36.17;;;;;;;;;;8293464;28;20386;-74
2021/04/17 17:55:37;;;;;;;51.08;24.77;;;;;;;;;;8308262;28;20349;-75
2021/04/17 17:59:43;;;;;;;49.83;22.90;;;;;;;;;;8311940;28;20053;-74
2021/04/17 18:03:47;;;;;;;73.88;37.50;;;;;;;;;;8261003;28;20413;-74
2021/04/17 18:08:01;;;;;;;60.78;28.35;;;;;;;;;;8295302;28;20052;-74
2021/04/17 18:12:04;;;;;;;41.67;20.35;;;;;;;;;;8294169;28;20460;-75
2021/04/17 18:16:07;;;;;;;36.25;20.83;;;;;;;;;;8277434;28;20383;-74
2021/04/17 18:20:13;;;;;;;42.63;20.98;;;;;;;;;;8296121;28;20507;-75
2021/04/17 18:24:20;;;;;;;68.53;30.55;;;;;;;;;;8295417;28;20400;-74
2021/04/17 18:28:25;;;;;;;133.15;68.47;;;;;;;;;;8278709;28;20432;-74
2021/04/17 18:32:34;;;;;;;161.50;93.15;;;;;;;;;;8277163;28;20398;-75
2021/04/17 18:36:45;;;;;;;83.18;38.88;;;;;;;;;;8276905;28;20353;-75
2021/04/17 18:40:52;;;;;;;47.90;22.17;;;;;;;;;;8294897;28;20494;-75
2021/04/17 18:44:57;;;;;;;64.00;28.20;;;;;;;;;;8294269;28;20333;-75
2021/04/17 18:49:02;;;;;;;63.70;29.15;;;;;;;;;;8295574;28;20469;-75
2021/04/17 18:53:07;;;;;;;80.20;38.40;;;;;;;;;;8293787;28;20395;-75
2021/04/17 18:57:12;;;;;;;80.35;34.28;;;;;;;;;;8293181;28;20383;-75
2021/04/17 19:01:17;;;;;;;147.57;53.50;;;;;;;;;;8293927;28;20478;-75
2021/04/17 19:05:34;;;;;;;127.35;54.10;;;;;;;;;;8276755;28;20348;-74
2021/04/17 19:09:39;;;;;;;68.63;40.45;;;;;;;;;;8293531;28;20356;-75
2021/04/17 19:13:43;;;;;;;62.00;38.78;;;;;;;;;;8260917;28;20383;-75
2021/04/17 19:17:51;;;;;;;63.40;26.48;;;;;;;;;;8293600;28;20467;-74
2021/04/17 19:21:55;;;;;;;40.55;18.00;;;;;;;;;;8293992;28;20098;-75
2021/04/17 19:26:00;;;;;;;59.60;24.60;;;;;;;;;;8294227;28;20410;-75
2021/04/17 19:30:06;;;;;;;109.28;37.15;;;;;;;;;;8294860;28;20478;-76
2021/04/17 19:34:11;;;;;;;43.40;17.52;;;;;;;;;;8277365;28;20435;-74
2021/04/17 19:38:15;;;;;;;33.90;15.30;;;;;;;;;;8294658;28;20503;-75
2021/04/17 19:42:20;;;;;;;38.63;17.75;;;;;;;;;;8292727;28;20490;-76
2021/04/17 19:46:25;;;;;;;61.92;23.02;;;;;;;;;;8275660;28;20343;-75
2021/04/17 19:50:30;;;;;;;75.05;21.65;;;;;;;;;;8292795;28;20363;-75
2021/04/17 19:54:37;;;;;;;80.35;24.92;;;;;;;;;;8291824;28;20460;-76
2021/04/17 19:58:42;;;;;;;51.75;17.50;;;;;;;;;;8292604;28;20357;-75
2021/04/17 20:02:47;;;;;;;40.03;15.73;;;;;;;;;;8294075;28;20490;-75
2021/04/17 20:06:53;;;;;;;56.78;20.52;;;;;;;;;;8275117;28;20390;-75
2021/04/17 20:10:57;;;;;;;59.92;22.70;;;;;;;;;;8292978;28;20451;-75
2021/04/17 20:15:09;;;;;;;48.28;19.40;;;;;;;;;;8293104;28;20452;-75
2021/04/17 20:19:23;;;;;;;55.05;17.77;;;;;;;;;;8276280;28;20056;-75
2021/04/17 20:23:29;;;;;;;49.72;18.50;;;;;;;;;;8292350;28;20481;-75
2021/04/17 20:27:35;;;;;;;49.28;18.98;;;;;;;;;;8276014;28;20337;-75
2021/04/17 20:31:40;;;;;;;58.08;19.85;;;;;;;;;;8291885;28;20414;-75
2021/04/17 20:35:46;;;;;;;196.85;43.83;;;;;;;;;;8293133;28;20494;-76
2021/04/17 20:39:50;;;;;;;390.50;89.78;;;;;;;;;;8274914;28;20451;-75
2021/04/17 20:43:55;;;;;;;360.63;85.45;;;;;;;;;;8291503;28;20078;-75
2021/04/17 20:48:01;;;;;;;341.50;81.40;;;;;;;;;;8274682;28;20456;-76
2021/04/17 20:52:06;;;;;;;82.00;27.48;;;;;;;;;;8292637;28;20387;-75
2021/04/17 20:56:10;;;;;;;75.40;24.63;;;;;;;;;;8290524;28;20467;-74
2021/04/17 21:00:17;;;;;;;77.93;26.52;;;;;;;;;;8290831;28;20078;-75
2021/04/17 21:04:22;;;;;;;83.80;23.70;;;;;;;;;;8273517;28;20075;-75
2021/04/17 21:08:27;;;;;;;104.78;35.35;;;;;;;;;;8274372;28;20487;-75
2021/04/17 21:12:32;;;;;;;103.63;38.40;;;;;;;;;;8289964;28;20356;-77
2021/04/17 21:16:37;;;;;;;173.38;61.30;;;;;;;;;;8272639;28;20482;-75
2021/04/17 21:20:41;;;;;;;141.07;43.80;;;;;;;;;;8292609;28;20479;-75
2021/04/17 21:24:53;;;;;;;158.52;49.70;;;;;;;;;;8290016;28;20662;-75
2021/04/17 21:28:57;;;;;;;152.45;42.22;;;;;;;;;;8272413;28;20066;-75
2021/04/17 21:33:01;;;;;;;111.50;32.47;;;;;;;;;;8289690;28;20383;-74
2021/04/17 21:37:06;;;;;;;105.55;30.17;;;;;;;;;;8255923;28;20474;-75
2021/04/17 21:41:11;;;;;;;100.70;31.95;;;;;;;;;;8289549;28;20053;-76
2021/04/17 21:45:18;;;;;;;79.97;28.27;;;;;;;;;;8289435;28;20451;-75
2021/04/17 21:49:24;;;;;;;74.07;28.00;;;;;;;;;;8273697;28;20348;-76
2021/04/17 21:53:27;;;;;;;61.25;21.80;;;;;;;;;;8289198;28;20486;-75
2021/04/17 21:57:32;;;;;;;63.85;21.73;;;;;;;;;;8290009;28;20060;-75
2021/04/17 22:01:36;;;;;;;60.08;21.95;;;;;;;;;;8289813;28;20490;-75
2021/04/17 22:05:42;;;;;;;53.50;22.25;;;;;;;;;;8271820;28;20387;-74
2021/04/17 22:09:46;;;;;;;54.80;22.58;;;;;;;;;;8272078;28;20463;-75
2021/04/17 22:13:51;;;;;;;65.20;22.83;;;;;;;;;;8290099;28;20368;-75
2021/04/17 22:17:55;;;;;;;97.40;34.70;;;;;;;;;;8296028;28;20395;-75
2021/04/17 22:22:01;;;;;;;121.20;36.00;;;;;;;;;;8295974;28;20060;-75
2021/04/17 22:26:20;;;;;;;82.68;27.83;;;;;;;;;;8265023;28;20467;-75
2021/04/17 22:30:25;;;;;;;67.15;22.83;;;;;;;;;;8278025;28;20361;-75
2021/04/17 22:34:30;;;;;;;98.47;31.17;;;;;;;;;;8296599;28;20364;-75
2021/04/17 22:38:34;;;;;;;105.03;31.75;;;;;;;;;;8295469;28;20522;-74
2021/04/17 22:42:42;;;;;;;78.15;28.23;;;;;;;;;;8295774;28;20459;-75
2021/04/17 22:46:47;;;;;;;54.47;20.48;;;;;;;;;;8295327;28;20079;-75
2021/04/17 22:50:51;;;;;;;98.18;29.00;;;;;;;;;;8294502;28;20432;-75
2021/04/17 22:54:55;;;;;;;81.72;27.98;;;;;;;;;;8296349;28;20448;-75
2021/04/17 22:58:59;;;;;;;125.82;38.95;;;;;;;;;;8295053;28;20490;-75
2021/04/17 23:03:03;;;;;;;64.10;24.30;;;;;;;;;;8278309;28;20376;-75
2021/04/17 23:07:08;;;;;;;48.03;17.65;;;;;;;;;;8294369;28;20056;-76
2021/04/17 23:11:12;;;;;;;46.08;15.93;;;;;;;;;;8293558;28;20463;-76
2021/04/17 23:15:18;;;;;;;45.45;16.30;;;;;;;;;;8293781;28;20440;-76
2021/04/17 23:19:23;;;;;;;44.80;17.92;;;;;;;;;;8294841;28;20384;-75
2021/04/17 23:23:27;;;;;;;52.55;18.55;;;;;;;;;;8293381;28;20499;-75
2021/04/17 23:27:32;;;;;;;53.47;18.20;;;;;;;;;;8293882;28;20041;-75
2021/04/17 23:31:36;;;;;;;154.85;37.08;;;;;;;;;;8295480;28;20071;-75
2021/04/17 23:35:41;;;;;;;82.05;26.10;;;;;;;;;;8293731;28;20475;-75
2021/04/17 23:39:45;;;;;;;99.43;28.60;;;;;;;;;;8293666;28;20439;-74
2021/04/17 23:43:49;;;;;;;71.93;25.48;;;;;;;;;;8275451;28;20414;-74
2021/04/17 23:47:52;;;;;;;62.67;22.83;;;;;;;;;;8292730;28;20471;-76
2021/04/17 23:51:58;;;;;;;82.53;23.13;;;;;;;;;;8276764;28;20070;-75
2021/04/17 23:56:04;;;;;;;70.88;23.08;;;;;;;;;;8292664;28;20479;-75
